Big Bear Station Historical Data
Daily Summary for May 10, 2017 Units:  English    Metric   Both
« Previous Day
Next Day »
Daily Weekly Monthly Yearly Custom
  High: Low: Average:
Temperature: 61.0 °F 39.4 °F 44.6 °F
Dew Point: 44.4 °F 37.6 °F 39.7 °F
Humidity: 96 % 51 % 84 %
Wind Speed: 6.3 mph 0.0 mph 1.8 mph
Wind Gust: -999.0 mph - -
Wind:- - South
Pressure: 30.11 in 30.04 in -
Precipitation: 0.00 in    
Historical Graphs
 
 
Tabular Data for May 10, 2017
Time Temperature Dew Point Pressure Wind Wind Speed Wind Gust Humidity Rainfall Rate (Hourly)
00:15 43.5 °F 38.4 °F 30.05 in Calm   -999.0 mph 82 % 0 in
00:30 43.2 °F 38.4 °F 30.05 in ENE 1.7 mph -999.0 mph 83 % 0 in
00:45 43.0 °F 38.2 °F 30.05 in SSW 1.1 mph -999.0 mph 83 % 0 in
01:00 42.8 °F 38.3 °F 30.05 in South 2.7 mph -999.0 mph 84 % 0 in
01:16 42.6 °F 38.1 °F 30.05 in SSE 2.7 mph -999.0 mph 84 % 0 in
01:31 42.6 °F 38.4 °F 30.05 in South 2.2 mph -999.0 mph 85 % 0 in
01:46 42.1 °F 37.9 °F 30.04 in SSE 1.1 mph -999.0 mph 85 % 0 in
02:02 42.1 °F 37.9 °F 30.04 in Calm   -999.0 mph 85 % 0 in
02:17 41.4 °F 38.1 °F 30.04 in Calm   -999.0 mph 88 % 0 in
02:32 40.6 °F 37.6 °F 30.04 in South 1.7 mph -999.0 mph 89 % 0 in
02:48 40.5 °F 37.8 °F 30.04 in South 2.7 mph -999.0 mph 90 % 0 in
03:03 40.1 °F 37.7 °F 30.04 in SW 1.7 mph -999.0 mph 91 % 0 in
03:18 40.1 °F 37.7 °F 30.04 in SSE 2.2 mph -999.0 mph 91 % 0 in
03:34 40.1 °F 38.0 °F 30.04 in SE 2.2 mph -999.0 mph 92 % 0 in
03:49 40.3 °F 38.2 °F 30.05 in South 1.7 mph -999.0 mph 92 % 0 in
04:04 40.6 °F 38.5 °F 30.05 in South 2.7 mph -999.0 mph 92 % 0 in
04:19 40.6 °F 38.5 °F 30.05 in SSW 2.7 mph -999.0 mph 92 % 0 in
04:34 40.8 °F 38.7 °F 30.05 in South 1.7 mph -999.0 mph 92 % 0 in
04:50 40.3 °F 37.9 °F 30.05 in South 1.7 mph -999.0 mph 91 % 0 in
05:05 40.1 °F 38.0 °F 30.05 in SSE 2.7 mph -999.0 mph 92 % 0 in
05:20 39.9 °F 37.8 °F 30.06 in SSE 2.2 mph -999.0 mph 92 % 0 in
05:35 39.9 °F 38.0 °F 30.06 in Calm   -999.0 mph 93 % 0 in
05:50 39.7 °F 38.1 °F 30.06 in Calm   -999.0 mph 94 % 0 in
06:06 39.4 °F 37.8 °F 30.06 in SSE 1.1 mph -999.0 mph 94 % 0 in
06:21 39.4 °F 38.1 °F 30.07 in Calm   -999.0 mph 95 % 0 in
06:37 39.7 °F 38.4 °F 30.07 in Calm   -999.0 mph 95 % 0 in
06:52 39.9 °F 38.6 °F 30.08 in Calm   -999.0 mph 95 % 0 in
07:07 41.0 °F 39.9 °F 30.08 in Calm   -999.0 mph 96 % 0 in
07:22 42.3 °F 40.7 °F 30.09 in South 1.7 mph -999.0 mph 94 % 0 in
07:38 43.9 °F 41.7 °F 30.09 in Calm   -999.0 mph 92 % 0 in
07:53 44.4 °F 42.2 °F 30.09 in East 1.1 mph -999.0 mph 92 % 0 in
08:08 46.8 °F 41.9 °F 30.09 in North 1.1 mph -999.0 mph 83 % 0 in
08:24 47.5 °F 42.3 °F 30.09 in Calm   -999.0 mph 82 % 0 in
08:39 48.6 °F 43.0 °F 30.09 in Calm   -999.0 mph 81 % 0 in
08:54 50.5 °F 42.9 °F 30.09 in NNW 4.2 mph -999.0 mph 75 % 0 in
09:09 52.7 °F 43.2 °F 30.10 in NNE 1.1 mph -999.0 mph 70 % 0 in
09:25 55.6 °F 44.4 °F 30.09 in NNW 3.2 mph -999.0 mph 66 % 0 in
09:40 57.4 °F 42.3 °F 30.09 in NNW 4.2 mph -999.0 mph 57 % 0 in
09:55 57.7 °F 42.6 °F 30.09 in NNE 4.7 mph -999.0 mph 57 % 0 in
10:10 58.6 °F 43.0 °F 30.10 in NW 4.7 mph -999.0 mph 56 % 0 in
10:26 58.8 °F 43.6 °F 30.10 in NW 6.3 mph -999.0 mph 57 % 0 in
11:16 61.0 °F 42.7 °F 30.11 in NNE 5.3 mph -999.0 mph 51 % 0 in
Big Bear CA Weather
Compliments of Weather Underground - 1.5 mb